sensor_id;sensor_type;location;lat;lon;timestamp;pressure;altitude;pressure_sealevel;temperature;humidity
49216;BME280;45943;53.148;8.204;2022-11-15T00:00:54;101040.38;;;10.11;100.00
49216;BME280;45943;53.148;8.204;2022-11-15T00:03:21;101033.31;;;10.10;100.00
49216;BME280;45943;53.148;8.204;2022-11-15T00:05:51;101032.47;;;10.09;100.00
49216;BME280;45943;53.148;8.204;2022-11-15T00:08:17;101035.16;;;10.09;100.00
49216;BME280;45943;53.148;8.204;2022-11-15T00:10:53;101027.97;;;10.10;100.00
49216;BME280;45943;53.148;8.204;2022-11-15T00:13:22;101025.50;;;10.06;100.00
49216;BME280;45943;53.148;8.204;2022-11-15T00:15:49;101030.16;;;10.04;100.00
49216;BME280;45943;53.148;8.204;2022-11-15T00:18:15;101033.88;;;10.02;100.00
49216;BME280;45943;53.148;8.204;2022-11-15T00:20:41;101026.81;;;10.01;100.00
49216;BME280;45943;53.148;8.204;2022-11-15T00:23:08;101030.59;;;9.98;100.00
49216;BME280;45943;53.148;8.204;2022-11-15T00:25:34;101031.88;;;9.93;100.00
49216;BME280;45943;53.148;8.204;2022-11-15T00:28:01;101024.75;;;9.93;100.00
49216;BME280;45943;53.148;8.204;2022-11-15T00:30:27;101023.13;;;9.91;100.00
49216;BME280;45943;53.148;8.204;2022-11-15T00:32:54;101028.59;;;9.89;100.00
49216;BME280;45943;53.148;8.204;2022-11-15T00:35:20;101031.50;;;9.86;100.00
49216;BME280;45943;53.148;8.204;2022-11-15T00:37:47;101030.13;;;9.81;100.00
49216;BME280;45943;53.148;8.204;2022-11-15T00:40:13;101033.66;;;9.81;100.00
49216;BME280;45943;53.148;8.204;2022-11-15T00:42:40;101032.19;;;9.77;100.00
49216;BME280;45943;53.148;8.204;2022-11-15T00:45:07;101039.50;;;9.75;100.00
49216;BME280;45943;53.148;8.204;2022-11-15T00:47:33;101032.53;;;9.72;100.00
49216;BME280;45943;53.148;8.204;2022-11-15T00:49:59;101026.22;;;9.73;100.00
49216;BME280;45943;53.148;8.204;2022-11-15T00:52:25;101033.63;;;9.70;100.00
49216;BME280;45943;53.148;8.204;2022-11-15T00:54:51;101036.28;;;9.70;100.00
49216;BME280;45943;53.148;8.204;2022-11-15T00:57:17;101031.16;;;9.67;100.00
49216;BME280;45943;53.148;8.204;2022-11-15T00:59:43;101035.03;;;9.63;100.00
49216;BME280;45943;53.148;8.204;2022-11-15T01:02:09;101029.91;;;9.60;100.00
49216;BME280;45943;53.148;8.204;2022-11-15T01:04:35;101029.91;;;9.60;100.00
49216;BME280;45943;53.148;8.204;2022-11-15T01:07:02;101037.19;;;9.58;100.00
49216;BME280;45943;53.148;8.204;2022-11-15T01:09:28;101032.41;;;9.50;100.00
49216;BME280;45943;53.148;8.204;2022-11-15T01:11:54;101033.47;;;9.47;100.00
49216;BME280;45943;53.148;8.204;2022-11-15T01:14:20;101031.91;;;9.45;100.00
49216;BME280;45943;53.148;8.204;2022-11-15T01:16:46;101031.13;;;9.43;100.00
49216;BME280;45943;53.148;8.204;2022-11-15T01:19:12;101029.88;;;9.36;100.00
49216;BME280;45943;53.148;8.204;2022-11-15T01:21:38;101027.41;;;9.33;100.00
49216;BME280;45943;53.148;8.204;2022-11-15T01:24:04;101024.97;;;9.30;100.00
49216;BME280;45943;53.148;8.204;2022-11-15T01:26:30;101018.88;;;9.28;100.00
49216;BME280;45943;53.148;8.204;2022-11-15T01:28:56;101022.50;;;9.27;100.00
49216;BME280;45943;53.148;8.204;2022-11-15T01:31:22;101012.13;;;9.22;100.00
49216;BME280;45943;53.148;8.204;2022-11-15T01:33:48;101013.84;;;9.23;100.00
49216;BME280;45943;53.148;8.204;2022-11-15T01:36:18;101002.38;;;9.21;100.00
49216;BME280;45943;53.148;8.204;2022-11-15T01:38:53;100997.16;;;9.19;100.00
49216;BME280;45943;53.148;8.204;2022-11-15T01:41:31;100994.59;;;9.18;100.00
49216;BME280;45943;53.148;8.204;2022-11-15T01:47:03;100991.59;;;9.10;100.00
49216;BME280;45943;53.148;8.204;2022-11-15T01:52:19;100982.28;;;9.03;100.00
49216;BME280;45943;53.148;8.204;2022-11-15T01:54:53;100975.25;;;9.02;100.00
49216;BME280;45943;53.148;8.204;2022-11-15T01:57:23;100980.94;;;8.97;100.00
49216;BME280;45943;53.148;8.204;2022-11-15T01:59:49;100975.91;;;8.93;100.00
49216;BME280;45943;53.148;8.204;2022-11-15T02:02:16;100973.34;;;8.91;100.00
49216;BME280;45943;53.148;8.204;2022-11-15T02:04:42;100965.31;;;8.91;100.00
49216;BME280;45943;53.148;8.204;2022-11-15T02:07:11;100969.50;;;8.95;100.00
49216;BME280;45943;53.148;8.204;2022-11-15T02:09:40;100969.38;;;8.97;100.00
49216;BME280;45943;53.148;8.204;2022-11-15T02:12:07;100965.50;;;9.01;100.00
49216;BME280;45943;53.148;8.204;2022-11-15T02:14:36;100952.88;;;9.03;100.00
49216;BME280;45943;53.148;8.204;2022-11-15T02:17:09;100957.91;;;9.07;100.00
49216;BME280;45943;53.148;8.204;2022-11-15T02:20:02;100940.53;;;9.13;100.00
49216;BME280;45943;53.148;8.204;2022-11-15T02:28:53;100954.09;;;9.23;100.00
49216;BME280;45943;53.148;8.204;2022-11-15T02:34:17;100952.44;;;9.33;100.00
49216;BME280;45943;53.148;8.204;2022-11-15T02:37:11;100950.31;;;9.38;100.00
49216;BME280;45943;53.148;8.204;2022-11-15T02:39:46;100943.84;;;9.40;100.00
49216;BME280;45943;53.148;8.204;2022-11-15T02:42:19;100942.78;;;9.43;100.00
49216;BME280;45943;53.148;8.204;2022-11-15T02:45:08;100939.03;;;9.45;100.00
49216;BME280;45943;53.148;8.204;2022-11-15T02:47:41;100945.97;;;9.48;100.00
49216;BME280;45943;53.148;8.204;2022-11-15T02:50:13;100935.03;;;9.51;100.00
49216;BME280;45943;53.148;8.204;2022-11-15T02:52:46;100944.66;;;9.54;100.00
49216;BME280;45943;53.148;8.204;2022-11-15T02:57:54;100938.97;;;9.58;100.00
49216;BME280;45943;53.148;8.204;2022-11-15T03:00:33;100940.44;;;9.62;100.00
49216;BME280;45943;53.148;8.204;2022-11-15T03:05:53;100945.34;;;9.68;100.00
49216;BME280;45943;53.148;8.204;2022-11-15T03:08:34;100942.41;;;9.71;100.00
49216;BME280;45943;53.148;8.204;2022-11-15T03:11:08;100942.22;;;9.74;100.00
49216;BME280;45943;53.148;8.204;2022-11-15T03:13:40;100944.78;;;9.76;100.00
49216;BME280;45943;53.148;8.204;2022-11-15T03:16:43;100946.22;;;9.80;100.00
49216;BME280;45943;53.148;8.204;2022-11-15T03:19:15;100943.09;;;9.86;100.00
49216;BME280;45943;53.148;8.204;2022-11-15T03:21:47;100945.53;;;9.89;100.00
49216;BME280;45943;53.148;8.204;2022-11-15T03:24:16;100942.53;;;9.94;100.00
49216;BME280;45943;53.148;8.204;2022-11-15T03:26:45;100942.41;;;9.95;100.00
49216;BME280;45943;53.148;8.204;2022-11-15T03:29:19;100936.56;;;10.01;100.00
49216;BME280;45943;53.148;8.204;2022-11-15T03:31:53;100933.66;;;10.04;100.00
49216;BME280;45943;53.148;8.204;2022-11-15T03:34:29;100933.28;;;10.09;100.00
49216;BME280;45943;53.148;8.204;2022-11-15T03:37:08;100927.69;;;10.12;100.00
49216;BME280;45943;53.148;8.204;2022-11-15T03:39:38;100923.81;;;10.16;100.00
49216;BME280;45943;53.148;8.204;2022-11-15T03:44:46;100920.47;;;10.25;100.00
49216;BME280;45943;53.148;8.204;2022-11-15T03:47:21;100918.25;;;10.30;100.00
49216;BME280;45943;53.148;8.204;2022-11-15T03:49:55;100913.88;;;10.29;100.00
49216;BME280;45943;53.148;8.204;2022-11-15T03:52:26;100925.97;;;10.35;100.00
49216;BME280;45943;53.148;8.204;2022-11-15T03:54:58;100923.75;;;10.40;100.00
49216;BME280;45943;53.148;8.204;2022-11-15T03:57:26;100911.94;;;10.43;100.00
49216;BME280;45943;53.148;8.204;2022-11-15T03:59:52;100916.09;;;10.47;100.00
49216;BME280;45943;53.148;8.204;2022-11-15T04:02:18;100916.81;;;10.49;100.00
49216;BME280;45943;53.148;8.204;2022-11-15T04:04:44;100914.84;;;10.51;100.00
49216;BME280;45943;53.148;8.204;2022-11-15T04:07:10;100910.34;;;10.51;100.00
49216;BME280;45943;53.148;8.204;2022-11-15T04:09:37;100916.34;;;10.55;100.00
49216;BME280;45943;53.148;8.204;2022-11-15T04:12:21;100917.06;;;10.57;100.00
49216;BME280;45943;53.148;8.204;2022-11-15T04:15:00;100915.97;;;10.59;100.00
49216;BME280;45943;53.148;8.204;2022-11-15T04:17:34;100917.66;;;10.60;100.00
49216;BME280;45943;53.148;8.204;2022-11-15T04:20:06;100918.28;;;10.64;100.00
49216;BME280;45943;53.148;8.204;2022-11-15T04:22:56;100912.69;;;10.67;100.00
49216;BME280;45943;53.148;8.204;2022-11-15T04:25:41;100909.00;;;10.68;100.00
49216;BME280;45943;53.148;8.204;2022-11-15T04:28:08;100916.09;;;10.69;100.00
49216;BME280;45943;53.148;8.204;2022-11-15T04:30:35;100909.50;;;10.73;100.00
49216;BME280;45943;53.148;8.204;2022-11-15T04:33:01;100913.03;;;10.74;100.00
49216;BME280;45943;53.148;8.204;2022-11-15T04:35:27;100919.88;;;10.78;100.00
49216;BME280;45943;53.148;8.204;2022-11-15T04:37:54;100923.13;;;10.81;100.00
49216;BME280;45943;53.148;8.204;2022-11-15T04:40:20;100925.72;;;10.83;100.00
49216;BME280;45943;53.148;8.204;2022-11-15T04:42:46;100910.47;;;10.83;100.00
49216;BME280;45943;53.148;8.204;2022-11-15T04:45:12;100919.25;;;10.85;100.00
49216;BME280;45943;53.148;8.204;2022-11-15T04:47:38;100916.44;;;10.87;100.00
49216;BME280;45943;53.148;8.204;2022-11-15T04:50:04;100916.09;;;10.91;100.00
49216;BME280;45943;53.148;8.204;2022-11-15T04:52:31;100919.25;;;10.97;100.00
49216;BME280;45943;53.148;8.204;2022-11-15T04:54:57;100916.56;;;10.97;100.00
49216;BME280;45943;53.148;8.204;2022-11-15T04:57:23;100908.38;;;10.98;100.00
49216;BME280;45943;53.148;8.204;2022-11-15T04:59:49;100917.78;;;11.04;100.00
49216;BME280;45943;53.148;8.204;2022-11-15T05:02:15;100909.31;;;11.08;100.00
49216;BME280;45943;53.148;8.204;2022-11-15T05:04:41;100918.84;;;11.12;100.00
49216;BME280;45943;53.148;8.204;2022-11-15T05:07:07;100907.84;;;11.15;100.00
49216;BME280;45943;53.148;8.204;2022-11-15T05:09:33;100911.00;;;11.20;100.00
49216;BME280;45943;53.148;8.204;2022-11-15T05:11:59;100911.50;;;11.26;100.00
49216;BME280;45943;53.148;8.204;2022-11-15T05:14:25;100909.91;;;11.23;100.00
49216;BME280;45943;53.148;8.204;2022-11-15T05:16:51;100917.44;;;11.29;100.00
49216;BME280;45943;53.148;8.204;2022-11-15T05:19:17;100905.50;;;11.33;100.00
49216;BME280;45943;53.148;8.204;2022-11-15T05:21:43;100903.41;;;11.37;100.00
49216;BME280;45943;53.148;8.204;2022-11-15T05:24:09;100902.19;;;11.41;100.00
49216;BME280;45943;53.148;8.204;2022-11-15T05:26:36;100898.38;;;11.43;100.00
49216;BME280;45943;53.148;8.204;2022-11-15T05:29:02;100894.56;;;11.46;100.00
49216;BME280;45943;53.148;8.204;2022-11-15T05:31:28;100896.75;;;11.52;100.00
49216;BME280;45943;53.148;8.204;2022-11-15T05:33:55;100885.88;;;11.54;100.00
49216;BME280;45943;53.148;8.204;2022-11-15T05:36:25;100892.81;;;11.56;100.00
49216;BME280;45943;53.148;8.204;2022-11-15T05:38:59;100887.44;;;11.56;100.00
49216;BME280;45943;53.148;8.204;2022-11-15T05:41:42;100881.81;;;11.59;100.00
49216;BME280;45943;53.148;8.204;2022-11-15T05:44:12;100888.91;;;11.60;100.00
49216;BME280;45943;53.148;8.204;2022-11-15T05:46:42;100885.97;;;11.63;100.00
49216;BME280;45943;53.148;8.204;2022-11-15T05:49:11;100890.34;;;11.64;100.00
49216;BME280;45943;53.148;8.204;2022-11-15T05:51:43;100892.63;;;11.69;100.00
49216;BME280;45943;53.148;8.204;2022-11-15T05:54:12;100892.41;;;11.72;100.00
49216;BME280;45943;53.148;8.204;2022-11-15T05:56:39;100892.97;;;11.75;100.00
49216;BME280;45943;53.148;8.204;2022-11-15T05:59:05;100895.53;;;11.77;100.00
49216;BME280;45943;53.148;8.204;2022-11-15T06:01:33;100906.94;;;11.81;100.00
49216;BME280;45943;53.148;8.204;2022-11-15T06:04:00;100905.09;;;11.81;100.00
49216;BME280;45943;53.148;8.204;2022-11-15T06:06:27;100903.00;;;11.85;100.00
49216;BME280;45943;53.148;8.204;2022-11-15T06:08:54;100911.06;;;11.85;100.00
49216;BME280;45943;53.148;8.204;2022-11-15T06:11:20;100901.72;;;11.89;100.00
49216;BME280;45943;53.148;8.204;2022-11-15T06:13:46;100898.09;;;11.90;100.00
49216;BME280;45943;53.148;8.204;2022-11-15T06:16:11;100907.09;;;11.89;100.00
49216;BME280;45943;53.148;8.204;2022-11-15T06:18:38;100901.50;;;11.92;100.00
49216;BME280;45943;53.148;8.204;2022-11-15T06:21:05;100915.25;;;11.98;100.00
49216;BME280;45943;53.148;8.204;2022-11-15T06:23:31;100906.19;;;11.99;100.00
49216;BME280;45943;53.148;8.204;2022-11-15T06:25:58;100904.13;;;12.03;100.00
49216;BME280;45943;53.148;8.204;2022-11-15T06:28:31;100904.56;;;12.08;100.00
49216;BME280;45943;53.148;8.204;2022-11-15T06:31:02;100899.91;;;12.10;100.00
49216;BME280;45943;53.148;8.204;2022-11-15T06:33:32;100898.66;;;12.14;100.00
49216;BME280;45943;53.148;8.204;2022-11-15T06:36:02;100906.44;;;12.17;100.00
49216;BME280;45943;53.148;8.204;2022-11-15T06:38:29;100902.91;;;12.17;100.00
49216;BME280;45943;53.148;8.204;2022-11-15T06:41:00;100903.38;;;12.22;100.00
49216;BME280;45943;53.148;8.204;2022-11-15T06:43:28;100901.97;;;12.27;100.00
49216;BME280;45943;53.148;8.204;2022-11-15T06:45:54;100911.38;;;12.33;100.00
49216;BME280;45943;53.148;8.204;2022-11-15T06:48:20;100909.25;;;12.37;100.00
49216;BME280;45943;53.148;8.204;2022-11-15T06:50:56;100918.78;;;12.41;100.00
49216;BME280;45943;53.148;8.204;2022-11-15T06:53:23;100923.19;;;12.42;100.00
49216;BME280;45943;53.148;8.204;2022-11-15T06:55:50;100923.88;;;12.44;100.00
49216;BME280;45943;53.148;8.204;2022-11-15T06:58:16;100927.03;;;12.49;100.00
49216;BME280;45943;53.148;8.204;2022-11-15T07:00:42;100926.06;;;12.50;100.00
49216;BME280;45943;53.148;8.204;2022-11-15T07:03:08;100936.81;;;12.50;100.00
49216;BME280;45943;53.148;8.204;2022-11-15T07:05:35;100931.16;;;12.53;100.00
49216;BME280;45943;53.148;8.204;2022-11-15T07:08:01;100926.50;;;12.55;100.00
49216;BME280;45943;53.148;8.204;2022-11-15T07:10:27;100936.03;;;12.59;100.00
49216;BME280;45943;53.148;8.204;2022-11-15T07:12:54;100935.75;;;12.62;100.00
49216;BME280;45943;53.148;8.204;2022-11-15T07:15:23;100931.06;;;12.64;100.00
49216;BME280;45943;53.148;8.204;2022-11-15T07:17:51;100939.72;;;12.68;100.00
49216;BME280;45943;53.148;8.204;2022-11-15T07:20:17;100939.72;;;12.68;100.00
49216;BME280;45943;53.148;8.204;2022-11-15T07:22:44;100932.94;;;12.73;100.00
49216;BME280;45943;53.148;8.204;2022-11-15T07:25:13;100932.66;;;12.76;100.00
49216;BME280;45943;53.148;8.204;2022-11-15T07:27:39;100925.34;;;12.78;100.00
49216;BME280;45943;53.148;8.204;2022-11-15T07:30:05;100924.22;;;12.81;100.00
49216;BME280;45943;53.148;8.204;2022-11-15T07:32:31;100930.03;;;12.86;100.00
49216;BME280;45943;53.148;8.204;2022-11-15T07:34:57;100929.78;;;12.89;100.00
49216;BME280;45943;53.148;8.204;2022-11-15T07:37:23;100931.19;;;12.93;100.00
49216;BME280;45943;53.148;8.204;2022-11-15T07:39:49;100925.66;;;12.95;100.00
49216;BME280;45943;53.148;8.204;2022-11-15T07:42:15;100928.50;;;12.93;100.00
49216;BME280;45943;53.148;8.204;2022-11-15T07:45:00;100927.66;;;12.92;100.00
49216;BME280;45943;53.148;8.204;2022-11-15T07:47:27;100934.59;;;12.95;100.00
49216;BME280;45943;53.148;8.204;2022-11-15T07:49:54;100926.38;;;12.97;100.00
49216;BME280;45943;53.148;8.204;2022-11-15T07:52:20;100935.28;;;12.97;100.00
49216;BME280;45943;53.148;8.204;2022-11-15T07:54:46;100924.53;;;12.97;100.00
49216;BME280;45943;53.148;8.204;2022-11-15T07:57:12;100925.53;;;12.96;100.00
49216;BME280;45943;53.148;8.204;2022-11-15T07:59:38;100924.94;;;12.92;100.00
49216;BME280;45943;53.148;8.204;2022-11-15T08:02:04;100928.50;;;12.93;100.00
49216;BME280;45943;53.148;8.204;2022-11-15T08:04:30;100924.09;;;12.92;100.00
49216;BME280;45943;53.148;8.204;2022-11-15T08:06:56;100923.56;;;12.98;100.00
49216;BME280;45943;53.148;8.204;2022-11-15T08:09:22;100919.88;;;12.99;100.00
49216;BME280;45943;53.148;8.204;2022-11-15T08:11:48;100917.19;;;12.99;100.00
49216;BME280;45943;53.148;8.204;2022-11-15T08:14:14;100918.03;;;13.00;100.00
49216;BME280;45943;53.148;8.204;2022-11-15T08:16:40;100909.53;;;13.04;100.00
49216;BME280;45943;53.148;8.204;2022-11-15T08:19:06;100911.94;;;13.07;100.00
49216;BME280;45943;53.148;8.204;2022-11-15T08:21:32;100918.06;;;13.09;100.00
49216;BME280;45943;53.148;8.204;2022-11-15T08:23:58;100919.47;;;13.13;100.00
49216;BME280;45943;53.148;8.204;2022-11-15T08:26:24;100918.50;;;13.14;100.00
49216;BME280;45943;53.148;8.204;2022-11-15T08:28:54;100913.09;;;13.14;100.00
49216;BME280;45943;53.148;8.204;2022-11-15T08:31:20;100910.16;;;13.17;100.00
49216;BME280;45943;53.148;8.204;2022-11-15T08:33:46;100920.53;;;13.22;100.00
49216;BME280;45943;53.148;8.204;2022-11-15T08:36:13;100925.06;;;13.22;100.00
49216;BME280;45943;53.148;8.204;2022-11-15T08:38:41;100923.94;;;13.24;100.00
49216;BME280;45943;53.148;8.204;2022-11-15T08:41:12;100920.38;;;13.24;100.00
49216;BME280;45943;53.148;8.204;2022-11-15T08:43:45;100930.03;;;13.26;100.00
49216;BME280;45943;53.148;8.204;2022-11-15T08:46:11;100928.19;;;13.27;100.00
49216;BME280;45943;53.148;8.204;2022-11-15T08:48:39;100928.06;;;13.28;100.00
49216;BME280;45943;53.148;8.204;2022-11-15T08:51:05;100936.16;;;13.28;100.00
49216;BME280;45943;53.148;8.204;2022-11-15T08:53:31;100931.47;;;13.30;100.00
49216;BME280;45943;53.148;8.204;2022-11-15T08:55:57;100934.03;;;13.32;100.00
49216;BME280;45943;53.148;8.204;2022-11-15T08:58:23;100936.00;;;13.30;100.00
49216;BME280;45943;53.148;8.204;2022-11-15T09:00:49;100938.56;;;13.31;100.00
49216;BME280;45943;53.148;8.204;2022-11-15T09:03:15;100941.81;;;13.35;100.00
49216;BME280;45943;53.148;8.204;2022-11-15T09:05:42;100934.72;;;13.34;100.00
49216;BME280;45943;53.148;8.204;2022-11-15T09:08:08;100931.88;;;13.35;100.00
49216;BME280;45943;53.148;8.204;2022-11-15T09:10:34;100928.94;;;13.38;100.00
49216;BME280;45943;53.148;8.204;2022-11-15T09:13:00;100927.66;;;13.42;100.00
49216;BME280;45943;53.148;8.204;2022-11-15T09:15:26;100928.22;;;13.46;100.00
49216;BME280;45943;53.148;8.204;2022-11-15T09:17:52;100927.66;;;13.52;100.00
49216;BME280;45943;53.148;8.204;2022-11-15T09:20:18;100924.28;;;13.60;100.00
49216;BME280;45943;53.148;8.204;2022-11-15T09:22:44;100919.16;;;13.66;100.00
49216;BME280;45943;53.148;8.204;2022-11-15T09:25:10;100922.44;;;13.70;100.00
49216;BME280;45943;53.148;8.204;2022-11-15T09:27:36;100922.00;;;13.74;100.00
49216;BME280;45943;53.148;8.204;2022-11-15T09:30:02;100919.03;;;13.77;100.00
49216;BME280;45943;53.148;8.204;2022-11-15T09:32:28;100922.00;;;13.84;100.00
49216;BME280;45943;53.148;8.204;2022-11-15T09:34:56;100919.88;;;13.88;100.00
49216;BME280;45943;53.148;8.204;2022-11-15T09:37:22;100922.69;;;13.96;100.00
49216;BME280;45943;53.148;8.204;2022-11-15T09:39:47;100917.03;;;13.99;100.00
49216;BME280;45943;53.148;8.204;2022-11-15T09:45:01;100916.31;;;14.06;100.00
49216;BME280;45943;53.148;8.204;2022-11-15T09:49:59;100907.06;;;14.09;100.00
49216;BME280;45943;53.148;8.204;2022-11-15T09:52:33;100918.41;;;14.13;100.00
49216;BME280;45943;53.148;8.204;2022-11-15T09:55:01;100917.56;;;14.12;100.00
49216;BME280;45943;53.148;8.204;2022-11-15T10:00:31;100911.75;;;14.17;100.00
49216;BME280;45943;53.148;8.204;2022-11-15T10:03:07;100908.75;;;14.20;100.00
49216;BME280;45943;53.148;8.204;2022-11-15T10:05:45;100898.34;;;14.25;100.00
49216;BME280;45943;53.148;8.204;2022-11-15T10:08:26;100908.03;;;14.27;100.00
49216;BME280;45943;53.148;8.204;2022-11-15T10:11:09;100906.31;;;14.36;100.00
49216;BME280;45943;53.148;8.204;2022-11-15T10:13:39;100900.91;;;14.46;100.00
49216;BME280;45943;53.148;8.204;2022-11-15T10:16:12;100897.72;;;14.60;100.00
49216;BME280;45943;53.148;8.204;2022-11-15T10:24:27;100881.81;;;14.84;100.00
49216;BME280;45943;53.148;8.204;2022-11-15T10:26:55;100888.50;;;14.90;100.00
49216;BME280;45943;53.148;8.204;2022-11-15T10:29:22;100880.06;;;14.93;100.00
49216;BME280;45943;53.148;8.204;2022-11-15T10:31:50;100875.41;;;14.95;100.00
49216;BME280;45943;53.148;8.204;2022-11-15T10:34:17;100869.28;;;14.93;100.00
49216;BME280;45943;53.148;8.204;2022-11-15T10:36:45;100872.22;;;15.00;100.00
49216;BME280;45943;53.148;8.204;2022-11-15T10:39:21;100871.22;;;15.01;100.00
49216;BME280;45943;53.148;8.204;2022-11-15T10:41:47;100865.28;;;14.97;100.00
49216;BME280;45943;53.148;8.204;2022-11-15T10:46:45;100858.56;;;15.01;100.00
49216;BME280;45943;53.148;8.204;2022-11-15T10:49:20;100848.44;;;15.03;100.00
49216;BME280;45943;53.148;8.204;2022-11-15T10:52:31;100849.78;;;14.99;100.00
49216;BME280;45943;53.148;8.204;2022-11-15T10:59:50;100839.81;;;15.00;100.00
49216;BME280;45943;53.148;8.204;2022-11-15T11:02:32;100832.41;;;15.02;100.00
49216;BME280;45943;53.148;8.204;2022-11-15T11:05:01;100833.34;;;15.10;100.00
49216;BME280;45943;53.148;8.204;2022-11-15T11:07:31;100824.16;;;15.21;100.00
49216;BME280;45943;53.148;8.204;2022-11-15T11:10:17;100819.84;;;15.28;100.00
49216;BME280;45943;53.148;8.204;2022-11-15T11:12:45;100817.50;;;15.33;100.00
49216;BME280;45943;53.148;8.204;2022-11-15T11:15:14;100815.03;;;15.40;100.00
49216;BME280;45943;53.148;8.204;2022-11-15T11:28:34;100804.06;;;15.59;100.00
49216;BME280;45943;53.148;8.204;2022-11-15T11:36:40;100806.53;;;15.70;100.00
49216;BME280;45943;53.148;8.204;2022-11-15T11:39:21;100809.94;;;15.72;100.00
49216;BME280;45943;53.148;8.204;2022-11-15T11:41:56;100803.22;;;15.76;100.00
49216;BME280;45943;53.148;8.204;2022-11-15T11:47:15;100802.94;;;15.88;100.00
49216;BME280;45943;53.148;8.204;2022-11-15T11:49:51;100799.81;;;16.00;100.00
49216;BME280;45943;53.148;8.204;2022-11-15T11:57:46;100795.56;;;16.24;100.00
49216;BME280;45943;53.148;8.204;2022-11-15T12:00:24;100791.53;;;16.28;100.00
49216;BME280;45943;53.148;8.204;2022-11-15T12:03:03;100791.53;;;16.28;100.00
49216;BME280;45943;53.148;8.204;2022-11-15T12:05:39;100787.97;;;16.27;100.00
49216;BME280;45943;53.148;8.204;2022-11-15T12:13:50;100766.56;;;16.08;100.00
49216;BME280;45943;53.148;8.204;2022-11-15T12:16:23;100761.28;;;16.32;100.00
49216;BME280;45943;53.148;8.204;2022-11-15T12:18:54;100764.91;;;16.57;100.00
49216;BME280;45943;53.148;8.204;2022-11-15T12:21:36;100755.78;;;16.67;100.00
49216;BME280;45943;53.148;8.204;2022-11-15T12:24:24;100754.44;;;16.62;100.00
49216;BME280;45943;53.148;8.204;2022-11-15T12:29:38;100749.00;;;16.54;100.00
49216;BME280;45943;53.148;8.204;2022-11-15T12:35:05;100747.13;;;16.55;100.00
49216;BME280;45943;53.148;8.204;2022-11-15T12:37:47;100749.78;;;16.89;100.00
49216;BME280;45943;53.148;8.204;2022-11-15T12:40:28;100750.81;;;17.29;100.00
49216;BME280;45943;53.148;8.204;2022-11-15T12:42:58;100740.97;;;17.93;100.00
49216;BME280;45943;53.148;8.204;2022-11-15T12:45:51;100738.75;;;18.35;100.00
49216;BME280;45943;53.148;8.204;2022-11-15T12:58:28;100726.00;;;19.44;100.00
49216;BME280;45943;53.148;8.204;2022-11-15T13:01:07;100722.44;;;19.96;96.15
49216;BME280;45943;53.148;8.204;2022-11-15T13:03:33;100720.19;;;20.29;91.51
49216;BME280;45943;53.148;8.204;2022-11-15T13:06:01;100715.22;;;20.47;83.89
49216;BME280;45943;53.148;8.204;2022-11-15T13:08:37;100720.50;;;20.91;81.33
49216;BME280;45943;53.148;8.204;2022-11-15T13:17:00;100732.03;;;19.77;80.63
49216;BME280;45943;53.148;8.204;2022-11-15T13:19:27;100730.41;;;19.68;82.37
49216;BME280;45943;53.148;8.204;2022-11-15T13:21:53;100738.19;;;19.10;86.87
49216;BME280;45943;53.148;8.204;2022-11-15T13:24:38;100738.25;;;18.40;96.16
49216;BME280;45943;53.148;8.204;2022-11-15T13:27:13;100728.94;;;18.34;100.00
49216;BME280;45943;53.148;8.204;2022-11-15T13:29:43;100730.56;;;19.66;92.97
49216;BME280;45943;53.148;8.204;2022-11-15T13:32:11;100735.06;;;20.77;77.05
49216;BME280;45943;53.148;8.204;2022-11-15T13:34:39;100726.41;;;21.59;67.90
49216;BME280;45943;53.148;8.204;2022-11-15T13:39:47;100718.44;;;22.75;61.85
49216;BME280;45943;53.148;8.204;2022-11-15T13:42:15;100712.22;;;23.47;58.40
49216;BME280;45943;53.148;8.204;2022-11-15T13:44:55;100717.50;;;23.68;55.79
49216;BME280;45943;53.148;8.204;2022-11-15T13:47:26;100710.34;;;23.47;52.92
49216;BME280;45943;53.148;8.204;2022-11-15T13:49:56;100716.06;;;22.58;54.01
49216;BME280;45943;53.148;8.204;2022-11-15T13:52:23;100709.63;;;21.62;55.61
49216;BME280;45943;53.148;8.204;2022-11-15T13:54:59;100707.41;;;20.80;58.61
49216;BME280;45943;53.148;8.204;2022-11-15T13:58:15;100707.31;;;20.38;61.63
49216;BME280;45943;53.148;8.204;2022-11-15T14:00:25;100703.75;;;20.22;62.47
49216;BME280;45943;53.148;8.204;2022-11-15T14:02:55;100705.53;;;20.00;64.53
49216;BME280;45943;53.148;8.204;2022-11-15T14:05:25;100707.53;;;19.77;65.68
49216;BME280;45943;53.148;8.204;2022-11-15T14:07:56;100697.19;;;19.72;66.73
49216;BME280;45943;53.148;8.204;2022-11-15T14:10:35;100695.19;;;19.96;65.88
49216;BME280;45943;53.148;8.204;2022-11-15T14:13:02;100690.06;;;19.86;65.06
49216;BME280;45943;53.148;8.204;2022-11-15T14:18:00;100684.34;;;19.43;68.71
49216;BME280;45943;53.148;8.204;2022-11-15T14:20:31;100690.41;;;18.93;72.65
49216;BME280;45943;53.148;8.204;2022-11-15T14:23:00;100691.69;;;18.51;77.00
49216;BME280;45943;53.148;8.204;2022-11-15T14:25:32;100688.78;;;18.22;81.83
49216;BME280;45943;53.148;8.204;2022-11-15T14:28:10;100685.47;;;17.95;86.47
49216;BME280;45943;53.148;8.204;2022-11-15T14:30:36;100698.59;;;17.75;89.57
49216;BME280;45943;53.148;8.204;2022-11-15T14:33:11;100679.97;;;17.56;94.00
49216;BME280;45943;53.148;8.204;2022-11-15T14:35:43;100692.19;;;17.44;96.80
49216;BME280;45943;53.148;8.204;2022-11-15T14:38:09;100689.00;;;17.32;99.71